sensor_id;sensor_type;location;lat;lon;timestamp;P1;durP1;ratioP1;P2;durP2;ratioP2
3561;SDS011;1795;52.074;4.754;2023-01-23T00:01:20;20.27;;;13.40;;
3561;SDS011;1795;52.074;4.754;2023-01-23T00:03:51;19.45;;;13.88;;
3561;SDS011;1795;52.074;4.754;2023-01-23T00:06:20;19.42;;;13.02;;
3561;SDS011;1795;52.074;4.754;2023-01-23T00:08:50;18.53;;;12.90;;
3561;SDS011;1795;52.074;4.754;2023-01-23T00:11:19;23.05;;;14.85;;
3561;SDS011;1795;52.074;4.754;2023-01-23T00:13:48;17.40;;;13.15;;
3561;SDS011;1795;52.074;4.754;2023-01-23T00:16:17;16.55;;;12.35;;
3561;SDS011;1795;52.074;4.754;2023-01-23T00:18:47;19.75;;;12.68;;
3561;SDS011;1795;52.074;4.754;2023-01-23T00:21:16;22.50;;;13.90;;
3561;SDS011;1795;52.074;4.754;2023-01-23T00:23:46;18.65;;;13.18;;
3561;SDS011;1795;52.074;4.754;2023-01-23T00:26:17;19.63;;;13.32;;
3561;SDS011;1795;52.074;4.754;2023-01-23T00:28:47;17.48;;;12.98;;
3561;SDS011;1795;52.074;4.754;2023-01-23T00:31:16;21.98;;;13.48;;
3561;SDS011;1795;52.074;4.754;2023-01-23T00:33:46;21.37;;;13.00;;
3561;SDS011;1795;52.074;4.754;2023-01-23T00:36:14;19.30;;;12.35;;
3561;SDS011;1795;52.074;4.754;2023-01-23T00:38:42;20.17;;;12.57;;
3561;SDS011;1795;52.074;4.754;2023-01-23T00:41:10;17.55;;;12.80;;
3561;SDS011;1795;52.074;4.754;2023-01-23T00:43:39;17.38;;;13.30;;
3561;SDS011;1795;52.074;4.754;2023-01-23T00:46:08;18.95;;;12.50;;
3561;SDS011;1795;52.074;4.754;2023-01-23T00:48:36;18.67;;;14.17;;
3561;SDS011;1795;52.074;4.754;2023-01-23T00:51:04;20.10;;;14.20;;
3561;SDS011;1795;52.074;4.754;2023-01-23T00:53:32;18.80;;;13.80;;
3561;SDS011;1795;52.074;4.754;2023-01-23T00:56:00;24.92;;;14.48;;
3561;SDS011;1795;52.074;4.754;2023-01-23T00:58:28;21.75;;;14.50;;
3561;SDS011;1795;52.074;4.754;2023-01-23T01:00:57;19.35;;;13.52;;
3561;SDS011;1795;52.074;4.754;2023-01-23T01:03:25;18.75;;;13.63;;
3561;SDS011;1795;52.074;4.754;2023-01-23T01:05:53;21.00;;;13.40;;
3561;SDS011;1795;52.074;4.754;2023-01-23T01:08:22;20.90;;;14.00;;
3561;SDS011;1795;52.074;4.754;2023-01-23T01:10:50;20.83;;;13.10;;
3561;SDS011;1795;52.074;4.754;2023-01-23T01:13:18;20.13;;;13.57;;
3561;SDS011;1795;52.074;4.754;2023-01-23T01:15:47;18.60;;;13.10;;
3561;SDS011;1795;52.074;4.754;2023-01-23T01:18:16;19.25;;;13.82;;
3561;SDS011;1795;52.074;4.754;2023-01-23T01:20:44;19.73;;;12.95;;
3561;SDS011;1795;52.074;4.754;2023-01-23T01:23:12;20.92;;;13.85;;
3561;SDS011;1795;52.074;4.754;2023-01-23T01:25:41;19.58;;;13.70;;
3561;SDS011;1795;52.074;4.754;2023-01-23T01:28:09;23.27;;;13.38;;
3561;SDS011;1795;52.074;4.754;2023-01-23T01:30:37;19.63;;;14.05;;
3561;SDS011;1795;52.074;4.754;2023-01-23T01:33:06;24.67;;;13.85;;
3561;SDS011;1795;52.074;4.754;2023-01-23T01:35:38;17.50;;;12.98;;
3561;SDS011;1795;52.074;4.754;2023-01-23T01:38:07;19.83;;;13.63;;
3561;SDS011;1795;52.074;4.754;2023-01-23T01:40:35;19.55;;;13.85;;
3561;SDS011;1795;52.074;4.754;2023-01-23T01:43:05;22.50;;;14.70;;
3561;SDS011;1795;52.074;4.754;2023-01-23T01:45:59;22.10;;;14.93;;
3561;SDS011;1795;52.074;4.754;2023-01-23T01:48:35;17.60;;;13.48;;
3561;SDS011;1795;52.074;4.754;2023-01-23T01:51:09;20.77;;;13.68;;
3561;SDS011;1795;52.074;4.754;2023-01-23T01:53:48;18.73;;;13.00;;
3561;SDS011;1795;52.074;4.754;2023-01-23T01:56:21;22.67;;;14.55;;
3561;SDS011;1795;52.074;4.754;2023-01-23T01:58:49;25.35;;;13.63;;
3561;SDS011;1795;52.074;4.754;2023-01-23T02:01:19;22.97;;;14.03;;
3561;SDS011;1795;52.074;4.754;2023-01-23T02:03:48;21.13;;;13.13;;
3561;SDS011;1795;52.074;4.754;2023-01-23T02:06:18;20.50;;;13.73;;
3561;SDS011;1795;52.074;4.754;2023-01-23T02:08:49;20.55;;;14.20;;
3561;SDS011;1795;52.074;4.754;2023-01-23T02:11:23;20.40;;;13.30;;
3561;SDS011;1795;52.074;4.754;2023-01-23T02:13:51;19.23;;;13.30;;
3561;SDS011;1795;52.074;4.754;2023-01-23T02:16:23;20.48;;;13.75;;
3561;SDS011;1795;52.074;4.754;2023-01-23T02:18:56;19.88;;;12.85;;
3561;SDS011;1795;52.074;4.754;2023-01-23T02:21:28;22.40;;;13.52;;
3561;SDS011;1795;52.074;4.754;2023-01-23T02:24:05;18.55;;;13.13;;
3561;SDS011;1795;52.074;4.754;2023-01-23T02:26:42;20.23;;;14.38;;
3561;SDS011;1795;52.074;4.754;2023-01-23T02:29:12;19.60;;;12.48;;
3561;SDS011;1795;52.074;4.754;2023-01-23T02:31:41;24.70;;;13.48;;
3561;SDS011;1795;52.074;4.754;2023-01-23T02:34:11;21.52;;;14.25;;
3561;SDS011;1795;52.074;4.754;2023-01-23T02:36:41;22.47;;;14.30;;
3561;SDS011;1795;52.074;4.754;2023-01-23T02:39:14;22.00;;;14.30;;
3561;SDS011;1795;52.074;4.754;2023-01-23T02:41:46;18.55;;;12.95;;
3561;SDS011;1795;52.074;4.754;2023-01-23T02:44:16;22.55;;;14.00;;
3561;SDS011;1795;52.074;4.754;2023-01-23T02:46:46;22.27;;;14.63;;
3561;SDS011;1795;52.074;4.754;2023-01-23T02:49:14;18.73;;;14.05;;
3561;SDS011;1795;52.074;4.754;2023-01-23T02:51:42;25.20;;;14.20;;
3561;SDS011;1795;52.074;4.754;2023-01-23T02:54:10;23.38;;;14.00;;
3561;SDS011;1795;52.074;4.754;2023-01-23T02:56:38;19.45;;;14.32;;
3561;SDS011;1795;52.074;4.754;2023-01-23T02:59:08;21.07;;;14.10;;
3561;SDS011;1795;52.074;4.754;2023-01-23T03:01:54;22.13;;;13.65;;
3561;SDS011;1795;52.074;4.754;2023-01-23T03:04:23;23.75;;;14.55;;
3561;SDS011;1795;52.074;4.754;2023-01-23T03:06:51;23.45;;;14.73;;
3561;SDS011;1795;52.074;4.754;2023-01-23T03:09:19;17.85;;;12.75;;
3561;SDS011;1795;52.074;4.754;2023-01-23T03:11:47;24.60;;;14.10;;
3561;SDS011;1795;52.074;4.754;2023-01-23T03:14:18;22.35;;;14.35;;
3561;SDS011;1795;52.074;4.754;2023-01-23T03:16:47;25.10;;;14.63;;
3561;SDS011;1795;52.074;4.754;2023-01-23T03:19:18;20.70;;;13.55;;
3561;SDS011;1795;52.074;4.754;2023-01-23T03:21:48;19.63;;;13.20;;
3561;SDS011;1795;52.074;4.754;2023-01-23T03:24:17;21.35;;;13.43;;
3561;SDS011;1795;52.074;4.754;2023-01-23T03:26:46;20.47;;;13.73;;
3561;SDS011;1795;52.074;4.754;2023-01-23T03:29:17;23.23;;;13.68;;
3561;SDS011;1795;52.074;4.754;2023-01-23T03:32:04;20.60;;;14.18;;
3561;SDS011;1795;52.074;4.754;2023-01-23T03:34:33;19.17;;;13.48;;
3561;SDS011;1795;52.074;4.754;2023-01-23T03:37:01;22.08;;;14.75;;
3561;SDS011;1795;52.074;4.754;2023-01-23T03:39:29;18.35;;;12.98;;
3561;SDS011;1795;52.074;4.754;2023-01-23T03:42:15;18.38;;;12.77;;
3561;SDS011;1795;52.074;4.754;2023-01-23T03:44:44;20.20;;;14.35;;
3561;SDS011;1795;52.074;4.754;2023-01-23T03:47:12;23.92;;;15.35;;
3561;SDS011;1795;52.074;4.754;2023-01-23T03:49:40;23.42;;;14.05;;
3561;SDS011;1795;52.074;4.754;2023-01-23T03:52:08;21.08;;;13.55;;
3561;SDS011;1795;52.074;4.754;2023-01-23T03:54:36;21.02;;;14.00;;
3561;SDS011;1795;52.074;4.754;2023-01-23T03:57:04;21.70;;;14.60;;
3561;SDS011;1795;52.074;4.754;2023-01-23T03:59:32;20.85;;;13.85;;
3561;SDS011;1795;52.074;4.754;2023-01-23T04:02:02;21.70;;;14.13;;
3561;SDS011;1795;52.074;4.754;2023-01-23T04:04:31;24.60;;;15.20;;
3561;SDS011;1795;52.074;4.754;2023-01-23T04:06:59;21.85;;;15.10;;
3561;SDS011;1795;52.074;4.754;2023-01-23T04:09:27;23.70;;;14.10;;
3561;SDS011;1795;52.074;4.754;2023-01-23T04:11:56;20.15;;;13.80;;
3561;SDS011;1795;52.074;4.754;2023-01-23T04:14:25;24.17;;;13.95;;
3561;SDS011;1795;52.074;4.754;2023-01-23T04:16:55;24.73;;;14.55;;
3561;SDS011;1795;52.074;4.754;2023-01-23T04:19:25;22.55;;;14.30;;
3561;SDS011;1795;52.074;4.754;2023-01-23T04:21:53;21.77;;;14.68;;
3561;SDS011;1795;52.074;4.754;2023-01-23T04:24:21;22.10;;;14.02;;
3561;SDS011;1795;52.074;4.754;2023-01-23T04:26:49;23.42;;;14.27;;
3561;SDS011;1795;52.074;4.754;2023-01-23T04:29:18;22.23;;;15.18;;
3561;SDS011;1795;52.074;4.754;2023-01-23T04:31:46;25.25;;;14.95;;
3561;SDS011;1795;52.074;4.754;2023-01-23T04:34:14;23.40;;;14.25;;
3561;SDS011;1795;52.074;4.754;2023-01-23T04:36:43;26.65;;;14.80;;
3561;SDS011;1795;52.074;4.754;2023-01-23T04:39:11;20.52;;;14.20;;
3561;SDS011;1795;52.074;4.754;2023-01-23T04:41:39;25.60;;;14.20;;
3561;SDS011;1795;52.074;4.754;2023-01-23T04:44:07;21.92;;;14.75;;
3561;SDS011;1795;52.074;4.754;2023-01-23T04:46:47;19.98;;;13.77;;
3561;SDS011;1795;52.074;4.754;2023-01-23T04:49:18;26.95;;;14.90;;
3561;SDS011;1795;52.074;4.754;2023-01-23T04:51:48;23.45;;;15.00;;
3561;SDS011;1795;52.074;4.754;2023-01-23T04:54:16;21.40;;;15.63;;
3561;SDS011;1795;52.074;4.754;2023-01-23T04:56:45;20.23;;;14.57;;
3561;SDS011;1795;52.074;4.754;2023-01-23T04:59:13;25.77;;;16.05;;
3561;SDS011;1795;52.074;4.754;2023-01-23T05:01:42;25.17;;;15.07;;
3561;SDS011;1795;52.074;4.754;2023-01-23T05:04:10;21.67;;;14.77;;
3561;SDS011;1795;52.074;4.754;2023-01-23T05:06:38;21.92;;;15.05;;
3561;SDS011;1795;52.074;4.754;2023-01-23T05:09:08;25.38;;;15.85;;
3561;SDS011;1795;52.074;4.754;2023-01-23T05:11:36;22.70;;;15.23;;
3561;SDS011;1795;52.074;4.754;2023-01-23T05:14:04;21.88;;;14.73;;
3561;SDS011;1795;52.074;4.754;2023-01-23T05:16:32;20.80;;;14.48;;
3561;SDS011;1795;52.074;4.754;2023-01-23T05:19:00;22.45;;;14.93;;
3561;SDS011;1795;52.074;4.754;2023-01-23T05:21:28;27.63;;;14.80;;
3561;SDS011;1795;52.074;4.754;2023-01-23T05:23:56;24.40;;;15.10;;
3561;SDS011;1795;52.074;4.754;2023-01-23T05:26:25;25.10;;;15.77;;
3561;SDS011;1795;52.074;4.754;2023-01-23T05:28:53;23.15;;;14.93;;
3561;SDS011;1795;52.074;4.754;2023-01-23T05:31:21;25.48;;;14.60;;
3561;SDS011;1795;52.074;4.754;2023-01-23T05:33:49;25.53;;;15.40;;
3561;SDS011;1795;52.074;4.754;2023-01-23T05:36:17;25.00;;;15.70;;
3561;SDS011;1795;52.074;4.754;2023-01-23T05:38:45;26.63;;;15.55;;
3561;SDS011;1795;52.074;4.754;2023-01-23T05:41:13;24.50;;;15.18;;
3561;SDS011;1795;52.074;4.754;2023-01-23T05:43:43;25.60;;;14.63;;
3561;SDS011;1795;52.074;4.754;2023-01-23T05:46:11;26.45;;;15.70;;
3561;SDS011;1795;52.074;4.754;2023-01-23T05:48:39;27.30;;;15.85;;
3561;SDS011;1795;52.074;4.754;2023-01-23T05:51:07;25.15;;;15.05;;
3561;SDS011;1795;52.074;4.754;2023-01-23T05:53:35;25.40;;;15.80;;
3561;SDS011;1795;52.074;4.754;2023-01-23T05:56:04;23.05;;;16.80;;
3561;SDS011;1795;52.074;4.754;2023-01-23T05:58:33;28.40;;;16.13;;
3561;SDS011;1795;52.074;4.754;2023-01-23T06:01:03;27.98;;;16.52;;
3561;SDS011;1795;52.074;4.754;2023-01-23T06:03:31;24.50;;;16.03;;
3561;SDS011;1795;52.074;4.754;2023-01-23T06:05:59;28.58;;;16.63;;
3561;SDS011;1795;52.074;4.754;2023-01-23T06:08:28;24.00;;;15.70;;
3561;SDS011;1795;52.074;4.754;2023-01-23T06:10:56;25.95;;;16.13;;
3561;SDS011;1795;52.074;4.754;2023-01-23T06:13:25;22.00;;;14.90;;
3561;SDS011;1795;52.074;4.754;2023-01-23T06:15:53;23.83;;;15.52;;
3561;SDS011;1795;52.074;4.754;2023-01-23T06:18:23;27.70;;;16.83;;
3561;SDS011;1795;52.074;4.754;2023-01-23T06:20:55;27.23;;;16.77;;
3561;SDS011;1795;52.074;4.754;2023-01-23T06:23:24;23.38;;;15.15;;
3561;SDS011;1795;52.074;4.754;2023-01-23T06:25:52;23.38;;;15.68;;
3561;SDS011;1795;52.074;4.754;2023-01-23T06:28:20;28.48;;;16.85;;
3561;SDS011;1795;52.074;4.754;2023-01-23T06:30:48;25.42;;;16.45;;
3561;SDS011;1795;52.074;4.754;2023-01-23T06:33:16;26.42;;;16.38;;
3561;SDS011;1795;52.074;4.754;2023-01-23T06:35:46;24.95;;;15.50;;
3561;SDS011;1795;52.074;4.754;2023-01-23T06:38:14;28.20;;;16.42;;
3561;SDS011;1795;52.074;4.754;2023-01-23T06:40:42;23.30;;;15.10;;
3561;SDS011;1795;52.074;4.754;2023-01-23T06:43:11;24.73;;;16.05;;
3561;SDS011;1795;52.074;4.754;2023-01-23T06:45:42;24.70;;;15.48;;
3561;SDS011;1795;52.074;4.754;2023-01-23T06:48:10;30.20;;;16.73;;
3561;SDS011;1795;52.074;4.754;2023-01-23T06:50:39;27.20;;;17.10;;
3561;SDS011;1795;52.074;4.754;2023-01-23T06:53:08;30.10;;;17.23;;
3561;SDS011;1795;52.074;4.754;2023-01-23T06:55:40;27.80;;;17.25;;
3561;SDS011;1795;52.074;4.754;2023-01-23T06:58:08;30.45;;;17.90;;
3561;SDS011;1795;52.074;4.754;2023-01-23T07:00:36;29.58;;;17.33;;
3561;SDS011;1795;52.074;4.754;2023-01-23T07:03:05;27.92;;;16.55;;
3561;SDS011;1795;52.074;4.754;2023-01-23T07:05:34;26.75;;;17.42;;
3561;SDS011;1795;52.074;4.754;2023-01-23T07:08:04;29.33;;;18.35;;
3561;SDS011;1795;52.074;4.754;2023-01-23T07:10:35;26.83;;;17.20;;
3561;SDS011;1795;52.074;4.754;2023-01-23T07:13:03;26.48;;;16.65;;
3561;SDS011;1795;52.074;4.754;2023-01-23T07:15:31;31.77;;;17.35;;
3561;SDS011;1795;52.074;4.754;2023-01-23T07:18:00;30.00;;;18.57;;
3561;SDS011;1795;52.074;4.754;2023-01-23T07:20:28;26.90;;;16.10;;
3561;SDS011;1795;52.074;4.754;2023-01-23T07:22:56;23.98;;;16.33;;
3561;SDS011;1795;52.074;4.754;2023-01-23T07:25:24;30.02;;;17.60;;
3561;SDS011;1795;52.074;4.754;2023-01-23T07:27:54;26.30;;;18.10;;
3561;SDS011;1795;52.074;4.754;2023-01-23T07:30:22;34.58;;;18.17;;
3561;SDS011;1795;52.074;4.754;2023-01-23T07:32:51;29.80;;;17.35;;
3561;SDS011;1795;52.074;4.754;2023-01-23T07:35:20;27.60;;;17.15;;
3561;SDS011;1795;52.074;4.754;2023-01-23T07:37:47;24.70;;;17.08;;
3561;SDS011;1795;52.074;4.754;2023-01-23T07:40:16;27.63;;;18.23;;
3561;SDS011;1795;52.074;4.754;2023-01-23T07:42:44;31.57;;;17.37;;
3561;SDS011;1795;52.074;4.754;2023-01-23T07:45:14;28.05;;;17.85;;
3561;SDS011;1795;52.074;4.754;2023-01-23T07:47:42;28.40;;;18.25;;
3561;SDS011;1795;52.074;4.754;2023-01-23T07:50:11;30.65;;;17.80;;
3561;SDS011;1795;52.074;4.754;2023-01-23T07:52:40;28.23;;;17.02;;
3561;SDS011;1795;52.074;4.754;2023-01-23T07:55:08;28.00;;;18.53;;
3561;SDS011;1795;52.074;4.754;2023-01-23T07:57:36;26.80;;;17.77;;
3561;SDS011;1795;52.074;4.754;2023-01-23T08:00:04;28.77;;;18.20;;
3561;SDS011;1795;52.074;4.754;2023-01-23T08:02:34;31.85;;;17.88;;
3561;SDS011;1795;52.074;4.754;2023-01-23T08:05:03;32.50;;;18.50;;
3561;SDS011;1795;52.074;4.754;2023-01-23T08:07:32;32.25;;;18.27;;
3561;SDS011;1795;52.074;4.754;2023-01-23T08:10:00;28.70;;;18.38;;
3561;SDS011;1795;52.074;4.754;2023-01-23T08:12:28;30.85;;;18.55;;
3561;SDS011;1795;52.074;4.754;2023-01-23T08:14:56;29.20;;;17.80;;
3561;SDS011;1795;52.074;4.754;2023-01-23T08:17:24;28.10;;;17.77;;
3561;SDS011;1795;52.074;4.754;2023-01-23T08:19:54;26.40;;;17.52;;
3561;SDS011;1795;52.074;4.754;2023-01-23T08:22:22;28.75;;;18.38;;
3561;SDS011;1795;52.074;4.754;2023-01-23T08:24:50;27.63;;;17.48;;
3561;SDS011;1795;52.074;4.754;2023-01-23T08:27:18;26.45;;;17.90;;
3561;SDS011;1795;52.074;4.754;2023-01-23T08:29:45;30.17;;;18.52;;
3561;SDS011;1795;52.074;4.754;2023-01-23T08:32:14;31.80;;;19.00;;
3561;SDS011;1795;52.074;4.754;2023-01-23T08:34:41;29.05;;;16.33;;
3561;SDS011;1795;52.074;4.754;2023-01-23T08:37:11;26.63;;;18.27;;
3561;SDS011;1795;52.074;4.754;2023-01-23T08:39:39;32.17;;;17.77;;
3561;SDS011;1795;52.074;4.754;2023-01-23T08:42:07;31.17;;;18.30;;
3561;SDS011;1795;52.074;4.754;2023-01-23T08:44:35;27.35;;;16.70;;
3561;SDS011;1795;52.074;4.754;2023-01-23T08:47:03;33.25;;;17.88;;
3561;SDS011;1795;52.074;4.754;2023-01-23T08:49:31;32.42;;;18.50;;
3561;SDS011;1795;52.074;4.754;2023-01-23T08:52:00;31.92;;;18.23;;
3561;SDS011;1795;52.074;4.754;2023-01-23T08:54:31;31.02;;;20.00;;
3561;SDS011;1795;52.074;4.754;2023-01-23T08:56:59;33.38;;;20.17;;
3561;SDS011;1795;52.074;4.754;2023-01-23T08:59:28;27.85;;;18.60;;
3561;SDS011;1795;52.074;4.754;2023-01-23T09:01:56;32.45;;;18.95;;
3561;SDS011;1795;52.074;4.754;2023-01-23T09:04:24;27.48;;;17.23;;
3561;SDS011;1795;52.074;4.754;2023-01-23T09:06:52;32.80;;;19.52;;
3561;SDS011;1795;52.074;4.754;2023-01-23T09:09:20;35.85;;;19.70;;
3561;SDS011;1795;52.074;4.754;2023-01-23T09:11:49;27.55;;;17.75;;
3561;SDS011;1795;52.074;4.754;2023-01-23T09:14:17;29.02;;;18.63;;
3561;SDS011;1795;52.074;4.754;2023-01-23T09:16:45;31.45;;;19.42;;
3561;SDS011;1795;52.074;4.754;2023-01-23T09:19:13;34.17;;;19.38;;
3561;SDS011;1795;52.074;4.754;2023-01-23T09:21:41;30.45;;;18.95;;
3561;SDS011;1795;52.074;4.754;2023-01-23T09:24:09;33.13;;;17.65;;
3561;SDS011;1795;52.074;4.754;2023-01-23T09:26:37;30.83;;;18.73;;
3561;SDS011;1795;52.074;4.754;2023-01-23T09:29:06;33.63;;;19.83;;
3561;SDS011;1795;52.074;4.754;2023-01-23T09:31:34;31.52;;;18.20;;
3561;SDS011;1795;52.074;4.754;2023-01-23T09:34:02;28.75;;;18.65;;
3561;SDS011;1795;52.074;4.754;2023-01-23T09:36:31;26.85;;;18.30;;
3561;SDS011;1795;52.074;4.754;2023-01-23T09:39:08;30.25;;;19.02;;
3561;SDS011;1795;52.074;4.754;2023-01-23T09:41:37;36.30;;;19.13;;
3561;SDS011;1795;52.074;4.754;2023-01-23T09:44:09;30.10;;;19.42;;
3561;SDS011;1795;52.074;4.754;2023-01-23T09:46:42;33.70;;;19.95;;
3561;SDS011;1795;52.074;4.754;2023-01-23T09:49:17;30.98;;;20.90;;
3561;SDS011;1795;52.074;4.754;2023-01-23T09:51:52;31.70;;;18.90;;
3561;SDS011;1795;52.074;4.754;2023-01-23T09:54:28;31.67;;;19.73;;
3561;SDS011;1795;52.074;4.754;2023-01-23T09:57:02;34.72;;;19.58;;
3561;SDS011;1795;52.074;4.754;2023-01-23T09:59:39;36.88;;;21.23;;
3561;SDS011;1795;52.074;4.754;2023-01-23T10:02:25;34.15;;;20.88;;
3561;SDS011;1795;52.074;4.754;2023-01-23T10:04:54;35.50;;;20.90;;
3561;SDS011;1795;52.074;4.754;2023-01-23T10:07:37;37.80;;;21.40;;
3561;SDS011;1795;52.074;4.754;2023-01-23T10:10:18;32.05;;;20.40;;
3561;SDS011;1795;52.074;4.754;2023-01-23T10:13:01;33.57;;;21.47;;
3561;SDS011;1795;52.074;4.754;2023-01-23T10:15:38;35.05;;;20.80;;
3561;SDS011;1795;52.074;4.754;2023-01-23T10:18:28;38.45;;;23.10;;
3561;SDS011;1795;52.074;4.754;2023-01-23T10:21:04;35.75;;;21.58;;
3561;SDS011;1795;52.074;4.754;2023-01-23T10:23:44;34.28;;;21.95;;
3561;SDS011;1795;52.074;4.754;2023-01-23T10:26:18;33.60;;;20.45;;
3561;SDS011;1795;52.074;4.754;2023-01-23T10:28:50;37.78;;;21.17;;
3561;SDS011;1795;52.074;4.754;2023-01-23T10:31:29;33.47;;;20.10;;
3561;SDS011;1795;52.074;4.754;2023-01-23T10:34:05;30.92;;;20.77;;
3561;SDS011;1795;52.074;4.754;2023-01-23T10:36:43;32.67;;;21.57;;
3561;SDS011;1795;52.074;4.754;2023-01-23T10:39:21;32.73;;;21.37;;
3561;SDS011;1795;52.074;4.754;2023-01-23T10:41:53;33.45;;;20.90;;
3561;SDS011;1795;52.074;4.754;2023-01-23T10:44:27;32.72;;;20.58;;
3561;SDS011;1795;52.074;4.754;2023-01-23T10:46:58;32.45;;;20.75;;
3561;SDS011;1795;52.074;4.754;2023-01-23T10:49:30;33.63;;;20.75;;
3561;SDS011;1795;52.074;4.754;2023-01-23T10:52:01;32.58;;;20.10;;
3561;SDS011;1795;52.074;4.754;2023-01-23T10:54:30;31.33;;;21.40;;
3561;SDS011;1795;52.074;4.754;2023-01-23T10:57:18;27.63;;;20.00;;
3561;SDS011;1795;52.074;4.754;2023-01-23T10:59:50;35.70;;;22.05;;
3561;SDS011;1795;52.074;4.754;2023-01-23T11:02:26;36.83;;;21.45;;
3561;SDS011;1795;52.074;4.754;2023-01-23T11:04:56;33.30;;;19.92;;
3561;SDS011;1795;52.074;4.754;2023-01-23T11:07:25;32.88;;;20.65;;
3561;SDS011;1795;52.074;4.754;2023-01-23T11:09:55;31.08;;;20.27;;
3561;SDS011;1795;52.074;4.754;2023-01-23T11:12:25;29.52;;;20.50;;
3561;SDS011;1795;52.074;4.754;2023-01-23T11:17:40;34.80;;;20.73;;
3561;SDS011;1795;52.074;4.754;2023-01-23T11:20:09;36.20;;;21.70;;
3561;SDS011;1795;52.074;4.754;2023-01-23T11:22:48;33.85;;;21.20;;
3561;SDS011;1795;52.074;4.754;2023-01-23T11:25:29;34.35;;;21.38;;
3561;SDS011;1795;52.074;4.754;2023-01-23T11:27:59;33.63;;;20.77;;
3561;SDS011;1795;52.074;4.754;2023-01-23T11:30:30;30.90;;;21.30;;
3561;SDS011;1795;52.074;4.754;2023-01-23T11:33:09;31.37;;;20.53;;
3561;SDS011;1795;52.074;4.754;2023-01-23T11:35:46;31.37;;;21.30;;
3561;SDS011;1795;52.074;4.754;2023-01-23T11:38:24;32.13;;;21.80;;
3561;SDS011;1795;52.074;4.754;2023-01-23T11:40:56;34.58;;;21.67;;
3561;SDS011;1795;52.074;4.754;2023-01-23T11:43:24;34.05;;;20.80;;
3561;SDS011;1795;52.074;4.754;2023-01-23T11:45:56;32.10;;;20.23;;
3561;SDS011;1795;52.074;4.754;2023-01-23T11:48:48;33.43;;;21.20;;
3561;SDS011;1795;52.074;4.754;2023-01-23T11:51:25;28.08;;;20.13;;
3561;SDS011;1795;52.074;4.754;2023-01-23T11:54:07;29.88;;;20.60;;
3561;SDS011;1795;52.074;4.754;2023-01-23T11:57:00;33.77;;;20.90;;
3561;SDS011;1795;52.074;4.754;2023-01-23T12:08:47;33.20;;;20.17;;
3561;SDS011;1795;52.074;4.754;2023-01-23T12:11:23;31.35;;;20.80;;
3561;SDS011;1795;52.074;4.754;2023-01-23T12:13:59;30.30;;;20.48;;
3561;SDS011;1795;52.074;4.754;2023-01-23T12:16:36;30.92;;;19.38;;
3561;SDS011;1795;52.074;4.754;2023-01-23T12:19:20;34.03;;;20.88;;
3561;SDS011;1795;52.074;4.754;2023-01-23T12:21:59;28.95;;;20.23;;
3561;SDS011;1795;52.074;4.754;2023-01-23T12:24:40;33.92;;;20.15;;
3561;SDS011;1795;52.074;4.754;2023-01-23T12:27:21;30.45;;;19.55;;
3561;SDS011;1795;52.074;4.754;2023-01-23T12:30:03;31.00;;;20.10;;
3561;SDS011;1795;52.074;4.754;2023-01-23T12:32:52;31.92;;;20.00;;
3561;SDS011;1795;52.074;4.754;2023-01-23T12:35:32;33.45;;;21.63;;
3561;SDS011;1795;52.074;4.754;2023-01-23T12:38:09;30.13;;;20.33;;
3561;SDS011;1795;52.074;4.754;2023-01-23T12:40:47;33.08;;;20.00;;
3561;SDS011;1795;52.074;4.754;2023-01-23T12:43:22;28.20;;;18.98;;
3561;SDS011;1795;52.074;4.754;2023-01-23T12:46:02;28.35;;;19.83;;
3561;SDS011;1795;52.074;4.754;2023-01-23T12:48:34;26.02;;;17.80;;
3561;SDS011;1795;52.074;4.754;2023-01-23T12:51:10;25.15;;;17.85;;
3561;SDS011;1795;52.074;4.754;2023-01-23T12:53:41;28.40;;;18.52;;
3561;SDS011;1795;52.074;4.754;2023-01-23T12:56:14;24.65;;;18.30;;
3561;SDS011;1795;52.074;4.754;2023-01-23T12:58:50;23.98;;;17.25;;
3561;SDS011;1795;52.074;4.754;2023-01-23T13:01:30;27.75;;;17.75;;
3561;SDS011;1795;52.074;4.754;2023-01-23T13:04:22;24.38;;;16.80;;
3561;SDS011;1795;52.074;4.754;2023-01-23T13:07:07;25.90;;;17.48;;
3561;SDS011;1795;52.074;4.754;2023-01-23T13:09:46;25.63;;;16.63;;
3561;SDS011;1795;52.074;4.754;2023-01-23T13:12:32;23.73;;;16.50;;
3561;SDS011;1795;52.074;4.754;2023-01-23T13:15:20;24.80;;;16.80;;
3561;SDS011;1795;52.074;4.754;2023-01-23T13:18:14;23.80;;;17.00;;
3561;SDS011;1795;52.074;4.754;2023-01-23T13:20:53;22.10;;;16.20;;
3561;SDS011;1795;52.074;4.754;2023-01-23T13:23:41;21.88;;;14.93;;
3561;SDS011;1795;52.074;4.754;2023-01-23T13:28:58;22.75;;;16.00;;
3561;SDS011;1795;52.074;4.754;2023-01-23T13:31:33;19.15;;;14.27;;
3561;SDS011;1795;52.074;4.754;2023-01-23T13:40:17;21.58;;;15.18;;
3561;SDS011;1795;52.074;4.754;2023-01-23T13:42:48;18.92;;;14.35;;
3561;SDS011;1795;52.074;4.754;2023-01-23T13:45:24;20.33;;;14.93;;
3561;SDS011;1795;52.074;4.754;2023-01-23T13:48:08;19.88;;;13.77;;
3561;SDS011;1795;52.074;4.754;2023-01-23T13:51:29;17.00;;;13.20;;
3561;SDS011;1795;52.074;4.754;2023-01-23T13:54:12;20.33;;;13.10;;
3561;SDS011;1795;52.074;4.754;2023-01-23T13:57:13;17.63;;;14.07;;
3561;SDS011;1795;52.074;4.754;2023-01-23T13:59:57;17.77;;;13.40;;
3561;SDS011;1795;52.074;4.754;2023-01-23T14:02:42;17.33;;;13.50;;
3561;SDS011;1795;52.074;4.754;2023-01-23T14:06:01;16.25;;;13.00;;
3561;SDS011;1795;52.074;4.754;2023-01-23T14:08:45;18.10;;;13.63;;
3561;SDS011;1795;52.074;4.754;2023-01-23T14:11:30;20.80;;;14.60;;
3561;SDS011;1795;52.074;4.754;2023-01-23T14:14:16;18.00;;;13.60;;
3561;SDS011;1795;52.074;4.754;2023-01-23T14:17:16;20.25;;;14.00;;
3561;SDS011;1795;52.074;4.754;2023-01-23T14:20:00;18.58;;;14.45;;
3561;SDS011;1795;52.074;4.754;2023-01-23T14:22:45;17.23;;;13.00;;
3561;SDS011;1795;52.074;4.754;2023-01-23T14:25:13;16.58;;;13.10;;
3561;SDS011;1795;52.074;4.754;2023-01-23T14:27:45;18.03;;;13.43;;
3561;SDS011;1795;52.074;4.754;2023-01-23T14:30:20;19.52;;;14.13;;
3561;SDS011;1795;52.074;4.754;2023-01-23T14:32:52;18.67;;;13.20;;
3561;SDS011;1795;52.074;4.754;2023-01-23T14:35:23;16.15;;;13.27;;
3561;SDS011;1795;52.074;4.754;2023-01-23T14:37:52;18.10;;;14.05;;
3561;SDS011;1795;52.074;4.754;2023-01-23T14:40:22;18.27;;;14.10;;
3561;SDS011;1795;52.074;4.754;2023-01-23T14:42:55;17.00;;;13.60;;
3561;SDS011;1795;52.074;4.754;2023-01-23T14:45:27;20.23;;;14.02;;
3561;SDS011;1795;52.074;4.754;2023-01-23T14:47:59;21.08;;;14.90;;
3561;SDS011;1795;52.074;4.754;2023-01-23T14:50:34;20.33;;;13.57;;
3561;SDS011;1795;52.074;4.754;2023-01-23T14:53:03;16.83;;;13.20;;
3561;SDS011;1795;52.074;4.754;2023-01-23T14:55:33;17.75;;;13.48;;
3561;SDS011;1795;52.074;4.754;2023-01-23T14:58:05;18.98;;;13.70;;
3561;SDS011;1795;52.074;4.754;2023-01-23T15:00:38;18.10;;;13.98;;
3561;SDS011;1795;52.074;4.754;2023-01-23T15:03:10;19.55;;;13.75;;
3561;SDS011;1795;52.074;4.754;2023-01-23T15:05:40;20.90;;;14.90;;
3561;SDS011;1795;52.074;4.754;2023-01-23T15:08:25;18.48;;;14.02;;
3561;SDS011;1795;52.074;4.754;2023-01-23T15:10:57;19.35;;;13.68;;
3561;SDS011;1795;52.074;4.754;2023-01-23T15:13:29;19.70;;;14.93;;
3561;SDS011;1795;52.074;4.754;2023-01-23T15:16:03;18.63;;;14.35;;
3561;SDS011;1795;52.074;4.754;2023-01-23T15:18:37;19.93;;;13.73;;
3561;SDS011;1795;52.074;4.754;2023-01-23T15:21:07;18.50;;;13.93;;
3561;SDS011;1795;52.074;4.754;2023-01-23T15:23:35;23.77;;;15.10;;
3561;SDS011;1795;52.074;4.754;2023-01-23T15:26:08;19.23;;;14.80;;
3561;SDS011;1795;52.074;4.754;2023-01-23T15:28:52;18.58;;;14.40;;
3561;SDS011;1795;52.074;4.754;2023-01-23T15:31:25;18.25;;;13.45;;
3561;SDS011;1795;52.074;4.754;2023-01-23T15:33:56;19.83;;;14.23;;
3561;SDS011;1795;52.074;4.754;2023-01-23T15:36:46;20.65;;;13.60;;
3561;SDS011;1795;52.074;4.754;2023-01-23T15:39:16;19.52;;;15.10;;